Time;durP1;ratioP1;P1;durP2;ratioP2;P2;SDS_P1;SDS_P2;PMS_P1;PMS_P2;Temp;Humidity;BMP_temperature;BMP_pressure;BME280_temperature;BME280_humidity;BME280_pressure;Samples;Min_cycle;Max_cycle;Signal;HPM_P1;HPM_P2
2023/05/30 00:00:06;;;;;;;6.95;6.35;;;;;;;-144.30;100.00;85410.34;5112580;28;20190;-56
2023/05/30 00:02:33;;;;;;;8.65;6.68;;;;;;;-144.30;100.00;85450.09;5132163;27;22620;-58
2023/05/30 00:05:01;;;;;;;9.20;6.00;;;;;;;-144.30;100.00;85420.28;5133363;27;20608;-59
2023/05/30 00:07:27;;;;;;;7.65;6.22;;;;;;;-144.30;100.00;85471.97;5133334;27;20287;-59
2023/05/30 00:09:56;;;;;;;6.82;6.28;;;;;;;-144.30;100.00;85446.13;5133498;27;20266;-59
2023/05/30 00:12:23;;;;;;;6.95;5.78;;;;;;;-144.30;100.00;85428.25;5132898;27;20205;-59
2023/05/30 00:14:50;;;;;;;7.20;6.40;;;;;;;-144.30;100.00;85356.69;5132862;27;20205;-56
2023/05/30 00:17:17;;;;;;;6.20;5.60;;;;;;;-144.30;100.00;85452.09;5132781;27;20200;-59
2023/05/30 00:19:45;;;;;;;7.05;6.35;;;;;;;-144.30;100.00;85444.16;5132945;27;20190;-60
2023/05/30 00:22:12;;;;;;;6.35;5.35;;;;;;;-144.30;100.00;85428.25;5132750;27;20288;-60
2023/05/30 00:24:39;;;;;;;6.45;5.72;;;;;;;-144.30;100.00;85420.28;5132590;27;20218;-59
2023/05/30 00:27:08;;;;;;;6.68;6.07;;;;;;;-144.30;100.00;85454.09;5132600;27;20251;-56
2023/05/30 00:29:35;;;;;;;9.52;6.63;;;;;;;-144.30;100.00;85404.38;5132707;27;20785;-56
2023/05/30 00:32:02;;;;;;;7.10;5.57;;;;;;;-144.30;100.00;85460.03;5132738;27;20291;-54
2023/05/30 00:34:29;;;;;;;6.85;5.40;;;;;;;-144.30;100.00;85402.41;5132789;27;20570;-56
2023/05/30 00:36:55;;;;;;;6.18;5.72;;;;;;;-144.30;100.00;85464.03;5132577;27;20577;-56
2023/05/30 00:39:22;;;;;;;6.28;5.78;;;;;;;-144.30;100.00;85475.94;5132325;27;20668;-58
2023/05/30 00:41:49;;;;;;;6.60;6.10;;;;;;;-144.30;100.00;85444.16;5132051;27;20572;-55
2023/05/30 00:44:17;;;;;;;9.63;6.35;;;;;;;-144.30;100.00;85444.16;5132496;27;20613;-59
2023/05/30 00:46:45;;;;;;;7.60;6.38;;;;;;;-144.30;100.00;85448.13;5132068;27;20727;-55
2023/05/30 00:49:13;;;;;;;10.00;6.72;;;;;;;-144.30;100.00;85481.91;5132226;27;20200;-55
2023/05/30 00:51:40;;;;;;;6.82;6.13;;;;;;;-144.30;100.00;85468.00;5132066;27;20194;-56
2023/05/30 00:54:08;;;;;;;6.25;5.75;;;;;;;-144.30;100.00;85432.22;5131757;27;20197;-55
2023/05/30 00:56:35;;;;;;;7.13;6.43;;;;;;;-144.30;100.00;85448.13;5132067;27;20194;-56
2023/05/30 00:59:03;;;;;;;6.55;6.05;;;;;;;-144.30;100.00;85424.25;5132318;27;20189;-55
2023/05/30 01:01:33;;;;;;;7.28;6.68;;;;;;;-144.30;100.00;85416.31;5131991;27;20663;-55
2023/05/30 01:04:01;;;;;;;5.97;5.38;;;;;;;-144.30;100.00;85412.34;5131924;27;20221;-55
2023/05/30 01:06:29;;;;;;;5.97;5.40;;;;;;;-144.30;100.00;85460.03;5131767;27;20359;-55
2023/05/30 01:08:58;;;;;;;6.43;5.70;;;;;;;-144.30;100.00;85470.00;5132074;27;20258;-55
2023/05/30 01:11:34;;;;;;;6.72;6.03;;;;;;;-144.30;100.00;85400.41;5131972;27;20666;-55
2023/05/30 01:14:11;;;;;;;6.00;5.40;;;;;;;-144.30;100.00;85428.25;5131831;27;20190;-55
2023/05/30 01:16:59;;;;;;;6.32;5.78;;;;;;;-144.30;100.00;85456.06;5131631;27;20194;-55
2023/05/30 01:19:47;;;;;;;6.30;5.72;;;;;;;-144.30;100.00;85428.25;5131573;27;20200;-56
2023/05/30 01:22:30;;;;;;;6.07;5.53;;;;;;;-144.30;100.00;85464.03;5131893;27;20198;-59
2023/05/30 01:25:07;;;;;;;6.90;5.97;;;;;;;-144.30;100.00;85438.19;5131555;27;20231;-59
2023/05/30 01:27:44;;;;;;;9.63;5.28;;;;;;;-144.30;100.00;85464.03;5131903;27;20284;-59
2023/05/30 01:30:14;;;;;;;5.50;5.10;;;;;;;-144.30;100.00;85440.16;5131777;27;20250;-59
2023/05/30 01:32:41;;;;;;;6.07;5.68;;;;;;;-144.30;100.00;85456.06;5131576;27;20363;-59
2023/05/30 01:35:22;;;;;;;6.93;6.22;;;;;;;-144.30;100.00;85468.00;5131518;27;20196;-59
2023/05/30 01:37:49;;;;;;;13.95;6.05;;;;;;;-144.30;100.00;85442.16;5131331;27;20268;-59
2023/05/30 01:40:20;;;;;;;7.65;6.95;;;;;;;-144.30;100.00;85497.81;5131412;27;20193;-59
2023/05/30 01:42:52;;;;;;;7.03;6.25;;;;;;;-144.30;100.00;85444.16;5131426;27;20194;-57
2023/05/30 01:45:28;;;;;;;8.63;6.22;;;;;;;-144.30;100.00;85475.94;5131129;27;20329;-56
2023/05/30 01:48:00;;;;;;;6.60;5.75;;;;;;;-144.30;100.00;85471.97;5130782;27;20225;-55
2023/05/30 01:50:32;;;;;;;7.40;6.18;;;;;;;-144.30;100.00;85456.06;5131089;27;20204;-55
2023/05/30 01:53:00;;;;;;;6.75;6.10;;;;;;;-144.30;100.00;85497.81;5129934;27;20251;-56
2023/05/30 01:55:30;;;;;;;6.72;5.80;;;;;;;-144.30;100.00;85507.75;5131151;27;20198;-56
2023/05/30 01:57:58;;;;;;;6.65;5.60;;;;;;;-144.30;100.00;85491.84;5131126;27;20535;-55
2023/05/30 02:00:27;;;;;;;7.88;5.43;;;;;;;-144.30;100.00;85471.97;5131030;27;20194;-56
2023/05/30 02:02:54;;;;;;;6.90;6.30;;;;;;;-144.30;100.00;85491.84;5130841;27;20503;-59
2023/05/30 02:05:21;;;;;;;5.75;5.07;;;;;;;-144.30;100.00;85505.78;5130839;27;20197;-58
2023/05/30 02:07:48;;;;;;;7.00;5.75;;;;;;;-144.30;100.00;85456.06;5131364;27;20194;-59
2023/05/30 02:10:15;;;;;;;5.88;5.38;;;;;;;-144.30;100.00;85460.03;5131051;27;20200;-59
2023/05/30 02:12:42;;;;;;;6.40;5.18;;;;;;;-144.30;100.00;85438.19;5130974;27;20660;-59
2023/05/30 02:15:09;;;;;;;5.60;5.03;;;;;;;-144.30;100.00;85450.09;5131018;27;20194;-59
2023/05/30 02:17:38;;;;;;;4.93;4.50;;;;;;;-144.30;100.00;85473.97;5131035;27;20201;-59
2023/05/30 02:20:06;;;;;;;5.30;4.90;;;;;;;-144.30;100.00;85493.84;5130828;27;20237;-58
2023/05/30 02:22:33;;;;;;;4.97;4.55;;;;;;;-144.30;100.00;85475.94;5131005;27;20646;-55
2023/05/30 02:24:59;;;;;;;5.95;3.95;;;;;;;-144.30;100.00;85491.84;5130626;27;20257;-58
2023/05/30 02:27:26;;;;;;;5.97;4.38;;;;;;;-144.30;100.00;85470.00;5131101;27;20194;-59
2023/05/30 02:29:53;;;;;;;4.30;4.00;;;;;;;-144.30;100.00;85448.13;5130603;27;20200;-56
2023/05/30 02:32:20;;;;;;;4.93;4.38;;;;;;;-144.30;100.00;85491.84;5130452;27;20204;-56
2023/05/30 02:34:48;;;;;;;4.95;4.15;;;;;;;-144.30;100.00;85503.78;5130621;27;20193;-58
2023/05/30 02:37:15;;;;;;;5.60;4.28;;;;;;;-144.30;100.00;85491.84;5130413;27;20198;-55
2023/05/30 02:39:42;;;;;;;5.60;3.47;;;;;;;-144.30;100.00;85479.94;5130692;27;20190;-56
2023/05/30 02:42:09;;;;;;;4.80;4.13;;;;;;;-144.30;100.00;85479.94;5130575;27;20204;-59
2023/05/30 02:44:36;;;;;;;4.18;3.55;;;;;;;-144.30;100.00;85471.97;5130457;27;20224;-55
2023/05/30 02:47:03;;;;;;;7.97;4.80;;;;;;;-144.30;100.00;85468.00;5130096;27;20320;-55
2023/05/30 02:49:30;;;;;;;5.95;4.28;;;;;;;-144.30;100.00;85489.88;5130478;27;20194;-55
2023/05/30 02:51:58;;;;;;;3.97;3.60;;;;;;;-144.30;100.00;85491.84;5130806;27;20194;-59
2023/05/30 02:54:25;;;;;;;6.22;3.83;;;;;;;-144.30;100.00;85440.16;5130274;27;20194;-58
2023/05/30 02:56:52;;;;;;;4.70;3.95;;;;;;;-144.30;100.00;85485.88;5130443;27;20225;-58
2023/05/30 02:59:19;;;;;;;8.80;4.32;;;;;;;-144.30;100.00;85471.97;5130809;27;20681;-59
2023/05/30 03:01:47;;;;;;;4.75;3.83;;;;;;;-144.30;100.00;85475.94;5130408;27;20205;-55
2023/05/30 03:04:14;;;;;;;6.28;3.65;;;;;;;-144.30;100.00;85487.88;5130793;27;20321;-58
2023/05/30 03:06:41;;;;;;;5.68;4.18;;;;;;;-144.30;100.00;85489.88;5134623;27;20198;-59
2023/05/30 03:09:11;;;;;;;4.93;4.25;;;;;;;-144.30;100.00;85462.03;5134401;27;20202;-56
2023/05/30 03:11:37;;;;;;;8.43;4.00;;;;;;;-144.30;100.00;85424.25;5133568;27;20196;-56
2023/05/30 03:14:04;;;;;;;6.35;4.30;;;;;;;-144.30;100.00;85503.78;5133137;27;20830;-55
2023/05/30 03:16:31;;;;;;;5.93;4.73;;;;;;;-144.30;100.00;85483.91;5134194;27;20190;-55
2023/05/30 03:18:58;;;;;;;7.32;5.07;;;;;;;-144.30;100.00;85493.84;5134100;27;20202;-56
2023/05/30 03:21:25;;;;;;;7.22;5.05;;;;;;;-144.30;100.00;85444.16;5134531;27;20190;-59
2023/05/30 03:23:52;;;;;;;6.93;4.50;;;;;;;-144.30;100.00;85479.94;5134195;27;20217;-60
2023/05/30 03:26:20;;;;;;;10.45;5.07;;;;;;;-144.30;100.00;85519.69;5133502;27;20587;-56
2023/05/30 03:28:48;;;;;;;5.68;4.30;;;;;;;-144.30;100.00;85471.97;5134305;27;20710;-56
2023/05/30 03:31:15;;;;;;;4.45;4.15;;;;;;;-144.30;100.00;85485.88;5134031;27;20198;-54
2023/05/30 03:33:42;;;;;;;4.47;4.05;;;;;;;-144.30;100.00;85517.69;5134133;27;20197;-56
2023/05/30 03:36:10;;;;;;;5.75;3.78;;;;;;;-144.30;100.00;85462.03;5133814;27;20589;-58
2023/05/30 03:38:37;;;;;;;6.90;4.18;;;;;;;-144.30;100.00;85503.78;5133944;27;20197;-59
2023/05/30 03:41:04;;;;;;;5.82;4.50;;;;;;;-144.30;100.00;85503.78;5133887;27;20194;-59
2023/05/30 03:43:33;;;;;;;5.97;4.53;;;;;;;-144.30;100.00;85521.69;5133803;27;20221;-55
2023/05/30 03:45:59;;;;;;;10.90;4.55;;;;;;;-144.30;100.00;85458.06;5124405;27;20685;-56
2023/05/30 03:48:26;;;;;;;6.03;4.10;;;;;;;-144.30;100.00;85452.09;5112515;27;20219;-58
2023/05/30 03:50:53;;;;;;;4.80;4.40;;;;;;;-144.30;100.00;85515.72;5111723;28;20223;-59
2023/05/30 03:53:20;;;;;;;5.32;4.60;;;;;;;-144.30;100.00;85452.09;5112047;27;20222;-59
2023/05/30 03:55:47;;;;;;;6.70;3.90;;;;;;;-144.30;100.00;85485.88;5112678;28;20623;-55
2023/05/30 03:58:14;;;;;;;8.40;5.07;;;;;;;-144.30;100.00;85466.00;5130289;27;20226;-55
2023/05/30 04:00:42;;;;;;;5.88;4.57;;;;;;;-144.30;100.00;85450.09;5132093;27;20190;-55
2023/05/30 04:03:09;;;;;;;7.53;4.68;;;;;;;-144.30;100.00;85471.97;5132906;27;20202;-55
2023/05/30 04:05:36;;;;;;;8.05;3.85;;;;;;;-144.30;100.00;85442.16;5133079;27;20709;-55
2023/05/30 04:08:03;;;;;;;5.63;4.28;;;;;;;-144.30;100.00;85487.88;5133624;27;20655;-58
2023/05/30 04:10:30;;;;;;;6.32;4.28;;;;;;;-144.30;100.00;85468.00;5133209;27;20201;-57
2023/05/30 04:12:57;;;;;;;7.53;4.22;;;;;;;-144.30;100.00;85446.13;5132099;27;20206;-58
2023/05/30 04:15:24;;;;;;;7.43;4.72;;;;;;;-144.30;100.00;85448.13;5132401;27;20200;-58
2023/05/30 04:17:52;;;;;;;5.70;5.20;;;;;;;-144.30;100.00;85450.09;5132111;27;20667;-58
2023/05/30 04:20:19;;;;;;;6.78;4.53;;;;;;;-144.30;100.00;85452.09;5133021;27;20198;-58
2023/05/30 04:22:46;;;;;;;4.80;4.15;;;;;;;-144.30;100.00;85446.13;5133142;27;20205;-58
2023/05/30 04:25:14;;;;;;;7.97;5.13;;;;;;;-144.30;100.00;85456.06;5132784;27;20222;-58
2023/05/30 04:27:41;;;;;;;5.75;4.95;;;;;;;-144.30;99.98;85428.25;5132620;27;20231;-58
2023/05/30 04:30:09;;;;;;;9.65;5.53;;;;;;;-144.30;100.00;85468.00;5132406;27;20200;-58
2023/05/30 04:32:36;;;;;;;10.10;5.07;;;;;;;-144.30;99.95;85446.13;5132239;27;20186;-58
2023/05/30 04:35:05;;;;;;;6.10;4.60;;;;;;;-144.30;99.78;85428.25;5132069;27;20192;-55
2023/05/30 04:37:33;;;;;;;6.72;4.55;;;;;;;-144.30;99.30;85428.25;5132440;27;20194;-59
2023/05/30 04:40:00;;;;;;;6.18;4.90;;;;;;;-144.30;98.72;85426.25;5132230;27;20578;-56
2023/05/30 04:42:33;;;;;;;5.18;4.65;;;;;;;-144.30;98.45;85452.09;5132506;27;20659;-58
2023/05/30 04:45:01;;;;;;;7.68;4.75;;;;;;;-144.30;98.18;85392.47;5130214;27;20213;-55
2023/05/30 04:47:28;;;;;;;7.13;4.78;;;;;;;-144.30;98.38;85392.47;5131942;27;20229;-60
2023/05/30 04:50:00;;;;;;;5.75;4.70;;;;;;;-144.30;98.57;85420.28;5132034;27;20186;-58
2023/05/30 04:52:28;;;;;;;5.90;4.30;;;;;;;-144.30;98.80;85430.22;5131615;27;20201;-59
2023/05/30 04:54:56;;;;;;;8.02;5.25;;;;;;;-144.30;98.81;85388.47;5131972;27;20663;-55
2023/05/30 04:57:23;;;;;;;8.57;4.55;;;;;;;-144.30;98.43;85438.19;5129080;27;20186;-59
2023/05/30 04:59:52;;;;;;;6.72;4.70;;;;;;;-144.30;98.01;85420.28;5131777;27;20204;-58
2023/05/30 05:02:19;;;;;;;6.05;5.03;;;;;;;-144.30;97.33;85394.44;5131497;27;20284;-55
2023/05/30 05:04:46;;;;;;;5.75;5.30;;;;;;;-144.30;97.10;85414.31;5131596;27;20210;-55
2023/05/30 05:07:13;;;;;;;6.93;5.15;;;;;;;-144.30;96.85;85388.47;5131183;27;20190;-56
2023/05/30 05:09:41;;;;;;;9.25;5.18;;;;;;;-144.30;96.95;85394.44;5130999;27;20190;-58
2023/05/30 05:12:10;;;;;;;5.45;4.55;;;;;;;-144.30;96.88;85376.56;5131155;27;20198;-58
2023/05/30 05:14:37;;;;;;;4.85;4.45;;;;;;;-144.30;96.72;85394.44;5131017;27;20186;-59
2023/05/30 05:17:05;;;;;;;12.13;5.32;;;;;;;-144.30;96.83;85406.38;5131862;27;20557;-58
2023/05/30 05:19:32;;;;;;;5.80;5.13;;;;;;;-144.30;97.02;85388.47;5131955;27;20646;-59
2023/05/30 05:21:58;;;;;;;13.10;4.70;;;;;;;-144.30;96.88;85388.47;5131826;27;20216;-55
2023/05/30 05:24:25;;;;;;;5.20;4.70;;;;;;;-144.30;97.01;85402.41;5130601;27;20600;-58
2023/05/30 05:26:54;;;;;;;14.38;8.65;;;;;;;-144.30;97.03;85388.47;5131759;27;20198;-59
2023/05/30 05:29:21;;;;;;;11.13;4.85;;;;;;;-144.30;97.09;85380.53;5130879;27;20212;-55
2023/05/30 05:31:47;;;;;;;8.50;7.00;;;;;;;-144.30;97.04;85410.34;5111093;28;20191;-55
2023/05/30 05:34:14;;;;;;;8.77;5.05;;;;;;;-144.30;97.28;85356.69;5110991;28;20583;-58
2023/05/30 05:36:43;;;;;;;12.38;5.63;;;;;;;-144.30;97.14;85378.53;5112291;27;20225;-59
2023/05/30 05:39:10;;;;;;;5.55;4.65;;;;;;;-144.30;96.94;85408.34;5131197;27;20251;-59
2023/05/30 05:41:36;;;;;;;8.65;4.53;;;;;;;-144.30;97.60;85388.47;5131274;27;20206;-55
2023/05/30 05:44:06;;;;;;;8.13;6.45;;;;;;;-144.30;97.53;85384.50;5131190;27;20193;-56
2023/05/30 05:46:33;;;;;;;12.18;8.57;;;;;;;-144.30;97.34;85364.63;5131223;27;20234;-56
2023/05/30 05:49:01;;;;;;;6.15;5.43;;;;;;;-144.30;96.91;85318.91;5131276;27;20284;-55
2023/05/30 05:51:28;;;;;;;16.38;6.15;;;;;;;-144.30;96.85;85358.66;5131412;27;20233;-58
2023/05/30 05:53:54;;;;;;;6.20;5.60;;;;;;;-144.30;97.05;85308.97;5131410;27;20282;-58
2023/05/30 05:56:22;;;;;;;8.75;6.50;;;;;;;-144.30;96.49;85334.81;5131161;27;20190;-57
2023/05/30 05:58:49;;;;;;;14.05;10.85;;;;;;;-144.30;96.78;85342.75;5131145;27;20198;-59
2023/05/30 06:01:17;;;;;;;7.22;6.53;;;;;;;-144.30;96.76;85352.69;5131415;27;20671;-55
2023/05/30 06:03:44;;;;;;;11.57;7.35;;;;;;;-144.30;96.64;85565.41;5131168;27;20204;-59
2023/05/30 06:06:11;;;;;;;17.85;14.00;;;;;;;-144.30;96.39;85320.91;5130661;27;20664;-56
2023/05/30 06:08:38;;;;;;;9.00;6.35;;;;;;;-144.30;96.00;85295.06;5131052;27;20223;-55
2023/05/30 06:11:05;;;;;;;9.50;7.68;;;;;;;-144.30;95.83;85320.91;5130673;27;20667;-58
2023/05/30 06:13:32;;;;;;;12.13;8.23;;;;;;;-144.30;95.74;85275.16;5130387;27;20190;-55
2023/05/30 06:15:59;;;;;;;8.93;5.70;;;;;;;-144.30;95.27;85316.91;5130705;27;20587;-56
2023/05/30 06:18:27;;;;;;;11.50;9.50;;;;;;;-144.30;95.06;85308.97;5130589;27;20198;-56
2023/05/30 06:20:54;;;;;;;23.92;15.73;;;;;;;-144.30;95.18;85297.03;5127941;28;20284;-56
2023/05/30 06:23:21;;;;;;;9.15;7.60;;;;;;;-144.30;94.52;85281.13;5130346;27;20292;-56
2023/05/30 06:25:48;;;;;;;16.13;8.60;;;;;;;-144.30;94.07;85243.38;5130652;27;20213;-55
2023/05/30 06:28:15;;;;;;;10.27;9.27;;;;;;;-144.30;93.39;85189.69;5127701;28;20194;-56
2023/05/30 06:30:42;;;;;;;9.50;7.95;;;;;;;-144.30;93.36;85227.47;5130450;28;20186;-56
2023/05/30 06:33:08;;;;;;;6.90;5.80;;;;;;;-144.30;93.55;85233.44;5130373;27;20197;-55
2023/05/30 06:35:37;;;;;;;10.32;5.97;;;;;;;-144.30;92.90;85207.59;5130633;27;20190;-58
2023/05/30 06:38:03;;;;;;;12.70;7.05;;;;;;;-144.30;92.47;85241.38;5130381;27;20201;-59
2023/05/30 06:40:30;;;;;;;7.53;5.75;;;;;;;-144.30;92.28;85177.75;5133141;27;20200;-59
2023/05/30 06:42:58;;;;;;;9.45;8.10;;;;;;;-144.30;91.65;85205.59;5134873;27;20200;-59
2023/05/30 06:45:25;;;;;;;16.20;8.13;;;;;;;-144.30;91.03;85159.88;5134406;27;20220;-59
2023/05/30 06:47:51;;;;;;;8.35;6.97;;;;;;;-144.30;91.02;85161.88;5133012;27;20221;-63
2023/05/30 06:50:18;;;;;;;7.38;6.47;;;;;;;-144.30;91.19;85181.75;5132901;27;20198;-59
2023/05/30 06:52:47;;;;;;;6.55;5.55;;;;;;;-144.30;90.78;85149.94;5134316;27;20281;-59
2023/05/30 06:55:15;;;;;;;10.82;8.77;;;;;;;-144.30;90.45;85102.22;5134322;27;20208;-55
2023/05/30 06:57:43;;;;;;;6.05;5.28;;;;;;;-144.30;90.42;85141.97;5134098;27;20205;-59
2023/05/30 07:00:11;;;;;;;10.60;6.13;;;;;;;-144.30;89.83;85145.97;5134705;27;20204;-59
2023/05/30 07:02:38;;;;;;;9.38;6.03;;;;;;;-144.30;89.18;85114.16;5134605;27;20194;-59
2023/05/30 07:05:06;;;;;;;13.50;6.80;;;;;;;-144.30;88.34;85092.28;5134007;27;20576;-59
2023/05/30 07:07:33;;;;;;;10.45;6.20;;;;;;;-144.30;87.31;85151.94;5134410;27;20198;-59
2023/05/30 07:10:02;;;;;;;5.55;5.10;;;;;;;-144.30;86.86;85094.28;5133878;27;20212;-56
2023/05/30 07:12:29;;;;;;;8.48;5.43;;;;;;;-144.30;86.58;85122.09;5127830;27;20201;-56
2023/05/30 07:14:55;;;;;;;7.43;4.57;;;;;;;-144.30;85.86;85068.44;5133858;27;20186;-56
2023/05/30 07:17:22;;;;;;;4.75;4.35;;;;;;;-144.30;84.98;85076.38;5133666;27;20201;-58
2023/05/30 07:19:49;;;;;;;4.90;4.20;;;;;;;-144.30;85.48;85110.19;5133926;27;20194;-58
2023/05/30 07:22:16;;;;;;;7.78;5.35;;;;;;;-144.30;85.24;85094.28;5133932;27;20699;-62
2023/05/30 07:24:43;;;;;;;8.88;4.78;;;;;;;-144.30;85.46;85080.38;5133681;27;20190;-58
2023/05/30 07:27:11;;;;;;;5.95;4.40;;;;;;;-144.30;85.13;85086.31;5133476;27;20215;-56
2023/05/30 07:29:38;;;;;;;6.28;5.63;;;;;;;-144.30;84.34;85042.59;5133481;27;20194;-56
2023/05/30 07:32:05;;;;;;;7.72;5.22;;;;;;;-144.30;84.41;85064.47;5130618;27;20632;-56
2023/05/30 07:34:32;;;;;;;7.43;6.00;;;;;;;-144.30;84.41;85060.50;5133619;27;20190;-56
2023/05/30 07:36:59;;;;;;;6.47;5.88;;;;;;;-144.30;83.96;85060.50;5133585;27;20196;-56
2023/05/30 07:39:26;;;;;;;8.63;6.28;;;;;;;-144.30;83.97;85070.44;5133189;27;20200;-55
2023/05/30 07:41:53;;;;;;;5.82;5.22;;;;;;;-144.30;84.02;85088.31;5133344;27;20216;-58
2023/05/30 07:44:21;;;;;;;11.13;5.20;;;;;;;-144.30;84.02;85088.31;5133094;27;20189;-58
2023/05/30 07:46:48;;;;;;;8.25;5.70;;;;;;;-144.30;83.58;85084.34;5132753;27;20318;-59
2023/05/30 07:49:15;;;;;;;11.02;6.95;;;;;;;-144.30;83.68;85058.50;5133391;27;20194;-56
2023/05/30 07:51:44;;;;;;;9.27;6.40;;;;;;;-144.30;84.36;85038.63;5131592;27;20709;-56
2023/05/30 07:54:10;;;;;;;7.22;5.93;;;;;;;-144.30;84.65;85040.59;5132866;27;20200;-56
2023/05/30 07:56:37;;;;;;;13.35;6.43;;;;;;;-144.30;85.26;85090.31;5132604;27;20190;-56
2023/05/30 07:59:05;;;;;;;10.50;7.88;;;;;;;-144.30;85.28;85102.22;5132690;27;20277;-56
2023/05/30 08:01:33;;;;;;;7.75;6.13;;;;;;;-144.30;84.87;85076.38;5130142;27;20216;-56
2023/05/30 08:04:00;;;;;;;10.57;6.15;;;;;;;-144.30;85.01;85062.47;5133472;27;20910;-56
2023/05/30 08:06:27;;;;;;;9.77;6.22;;;;;;;-144.30;84.85;85060.50;5132476;27;20288;-55
2023/05/30 08:08:54;;;;;;;7.15;6.45;;;;;;;-144.30;84.00;85058.50;5132983;27;20205;-56
2023/05/30 08:11:21;;;;;;;9.10;6.65;;;;;;;-144.30;83.85;85054.53;5133108;27;20583;-56
2023/05/30 08:13:48;;;;;;;7.43;6.55;;;;;;;-144.30;83.53;85020.72;5132992;27;20198;-59
2023/05/30 08:16:15;;;;;;;8.10;6.82;;;;;;;-144.30;83.28;84992.91;5132968;27;20234;-55
2023/05/30 08:18:45;;;;;;;11.07;6.70;;;;;;;-144.30;83.15;85018.75;5132886;27;20190;-55
2023/05/30 08:21:13;;;;;;;9.77;6.45;;;;;;;-144.30;83.44;85020.72;5132746;27;20198;-55
2023/05/30 08:23:40;;;;;;;11.23;6.03;;;;;;;-144.30;84.09;85014.78;5132637;27;20190;-56
2023/05/30 08:26:08;;;;;;;6.50;5.32;;;;;;;-144.30;83.69;84943.22;5132521;27;20228;-58
2023/05/30 08:28:35;;;;;;;6.10;4.78;;;;;;;-144.30;84.11;85032.66;5130697;27;20591;-58
2023/05/30 08:31:03;;;;;;;10.20;5.55;;;;;;;-144.30;84.90;85002.84;5112328;28;20295;-59
2023/05/30 08:33:30;;;;;;;9.68;5.30;;;;;;;-144.30;86.22;84998.88;5121232;27;20278;-58
2023/05/30 08:35:58;;;;;;;14.48;5.90;;;;;;;-144.30;88.40;85000.84;5131666;27;20196;-54
2023/05/30 08:38:25;;;;;;;7.13;5.25;;;;;;;-144.30;89.83;85038.63;5131674;27;20255;-58
2023/05/30 08:40:53;;;;;;;8.93;5.97;;;;;;;-144.30;90.85;85092.28;5130879;27;20700;-56
2023/05/30 08:43:20;;;;;;;10.52;5.97;;;;;;;-144.30;91.10;85080.38;5132366;27;20198;-56
2023/05/30 08:45:48;;;;;;;8.55;5.85;;;;;;;-144.30;92.00;85086.31;5132413;27;20587;-55
2023/05/30 08:48:19;;;;;;;5.75;5.25;;;;;;;-144.30;91.30;85024.72;5132568;27;20663;-56
2023/05/30 08:50:47;;;;;;;8.20;7.40;;;;;;;-144.30;91.66;85076.38;5132341;27;20194;-56
2023/05/30 08:53:23;;;;;;;7.28;5.93;;;;;;;-144.30;91.83;85110.19;5131345;27;20206;-59
2023/05/30 08:55:58;;;;;;;9.13;6.45;;;;;;;-144.30;91.38;85090.31;5132379;27;20663;-58
2023/05/30 08:58:29;;;;;;;7.28;6.57;;;;;;;-144.30;92.27;85104.22;5132187;27;20198;-59
2023/05/30 09:00:56;;;;;;;8.13;6.80;;;;;;;-144.30;92.13;85050.53;5132078;27;20201;-58
2023/05/30 09:03:24;;;;;;;11.43;7.13;;;;;;;-144.30;91.37;85106.22;5131608;27;20196;-59
2023/05/30 09:05:53;;;;;;;8.18;6.03;;;;;;;-144.30;91.79;85112.16;5132019;27;20603;-55
2023/05/30 09:08:24;;;;;;;12.10;6.45;;;;;;;-144.30;92.04;85074.41;5131913;27;20198;-56
2023/05/30 09:10:51;;;;;;;7.35;6.25;;;;;;;-144.30;91.96;85050.53;5131927;27;20237;-55
2023/05/30 09:13:18;;;;;;;9.43;6.47;;;;;;;-144.30;91.95;85034.66;5132031;27;20194;-55
2023/05/30 09:15:45;;;;;;;10.27;6.32;;;;;;;-144.30;91.99;85016.75;5132003;27;20198;-55
2023/05/30 09:18:12;;;;;;;8.90;6.30;;;;;;;-144.30;91.85;85026.69;5131838;27;20258;-57
2023/05/30 09:20:40;;;;;;;8.85;6.45;;;;;;;-144.30;91.04;85006.81;5131897;27;20204;-57
2023/05/30 09:23:07;;;;;;;6.97;5.88;;;;;;;-144.30;90.85;85014.78;5132192;27;20667;-55
2023/05/30 09:25:45;;;;;;;8.50;6.30;;;;;;;-144.30;90.15;85020.72;5131900;27;20222;-58
2023/05/30 09:28:13;;;;;;;6.63;5.90;;;;;;;-144.30;89.10;84998.88;5131756;27;20208;-54
2023/05/30 09:30:54;;;;;;;8.07;6.15;;;;;;;-144.30;90.21;85332.81;5132069;27;20190;-55
2023/05/30 09:33:21;;;;;;;10.00;5.78;;;;;;;-144.30;91.00;85054.53;5131845;27;20198;-55
2023/05/30 09:35:52;;;;;;;6.53;6.00;;;;;;;-144.30;92.52;85026.69;5131570;27;20194;-56
2023/05/30 09:38:21;;;;;;;10.52;6.85;;;;;;;-144.30;92.71;85056.50;5131887;27;20679;-55
2023/05/30 09:40:51;;;;;;;9.70;5.82;;;;;;;-144.30;92.50;85022.72;5131294;27;20193;-58
2023/05/30 09:43:30;;;;;;;8.13;6.22;;;;;;;-144.30;91.47;84986.94;5131554;27;20198;-59
2023/05/30 09:45:57;;;;;;;7.40;6.53;;;;;;;-144.30;91.31;85058.50;5131272;27;20226;-59
2023/05/30 09:48:24;;;;;;;7.38;6.78;;;;;;;-144.30;91.65;85078.38;5131452;27;20204;-59
2023/05/30 09:50:53;;;;;;;12.02;7.18;;;;;;;-144.30;92.11;85034.66;5131593;27;20702;-59
2023/05/30 09:53:20;;;;;;;7.88;7.05;;;;;;;-144.30;92.57;85074.41;5131408;27;20202;-59
2023/05/30 09:55:47;;;;;;;8.82;7.28;;;;;;;-144.30;92.91;85014.78;5130470;27;20201;-59
2023/05/30 09:58:20;;;;;;;9.88;7.93;;;;;;;-144.30;92.90;85014.78;5130867;27;20206;-58
2023/05/30 10:00:51;;;;;;;16.02;8.20;;;;;;;-144.30;93.05;85006.81;5130668;27;20583;-58
2023/05/30 10:03:18;;;;;;;12.52;7.68;;;;;;;-144.30;93.14;84963.09;5130539;27;20226;-55
2023/05/30 10:05:45;;;;;;;11.68;8.05;;;;;;;-144.30;92.47;84955.13;5130640;27;20714;-55
2023/05/30 10:08:13;;;;;;;9.20;7.35;;;;;;;-144.30;92.13;84955.13;5130918;27;20190;-55
2023/05/30 10:10:40;;;;;;;14.15;7.28;;;;;;;-144.30;91.88;84949.19;5127868;27;20194;-58
2023/05/30 10:13:07;;;;;;;16.55;8.02;;;;;;;-144.30;92.42;84935.25;5130544;27;20190;-58
2023/05/30 10:15:36;;;;;;;8.00;7.20;;;;;;;-144.30;92.04;84917.38;5129748;27;20206;-58
2023/05/30 10:18:07;;;;;;;10.20;7.47;;;;;;;-144.30;91.31;84941.22;5128144;27;20293;-55
2023/05/30 10:20:37;;;;;;;15.48;8.82;;;;;;;-144.30;90.61;84943.22;5130361;27;20627;-55
2023/05/30 10:23:07;;;;;;;10.25;8.60;;;;;;;-144.30;90.09;84873.66;5127866;28;20194;-55
2023/05/30 10:25:36;;;;;;;12.32;9.00;;;;;;;-144.30;90.22;84927.31;5130425;28;20198;-55
2023/05/30 10:28:06;;;;;;;16.33;8.20;;;;;;;-144.30;90.62;84959.13;5127846;27;20189;-56
2023/05/30 10:30:36;;;;;;;9.52;7.82;;;;;;;-144.30;90.24;84853.78;5130515;28;20590;-56
2023/05/30 10:33:06;;;;;;;13.88;7.93;;;;;;;-144.30;89.01;84859.72;5130532;27;20190;-56
2023/05/30 10:35:33;;;;;;;9.77;7.15;;;;;;;-144.30;88.60;84851.78;5130880;27;20685;-54
2023/05/30 10:38:01;;;;;;;12.00;7.35;;;;;;;-144.30;87.86;84843.84;5127795;27;20201;-55
2023/05/30 10:40:42;;;;;;;9.13;6.70;;;;;;;-144.30;88.57;84847.81;5129624;28;20256;-56
2023/05/30 10:43:37;;;;;;;11.38;7.35;;;;;;;-144.30;87.76;84835.88;5129468;28;20586;-58
2023/05/30 10:46:18;;;;;;;12.30;7.15;;;;;;;-144.30;87.63;84812.03;5128346;27;20235;-58
2023/05/30 10:48:51;;;;;;;10.05;7.50;;;;;;;-144.30;87.84;84800.09;5127848;27;20571;-58
2023/05/30 10:51:19;;;;;;;12.82;6.35;;;;;;;-144.30;86.51;84766.31;5129000;27;20202;-56
2023/05/30 10:53:47;;;;;;;7.72;6.78;;;;;;;-144.30;86.92;84819.97;5129305;27;20194;-56
2023/05/30 10:56:39;;;;;;;7.05;5.85;;;;;;;-144.30;86.19;84804.06;5129186;28;20284;-55
2023/05/30 10:59:13;;;;;;;8.88;5.97;;;;;;;-144.30;85.59;84732.53;5128890;27;20194;-55
2023/05/30 11:01:41;;;;;;;7.25;5.50;;;;;;;-144.30;84.93;84772.28;5129130;28;20578;-55
2023/05/30 11:04:11;;;;;;;7.50;5.00;;;;;;;-144.30;82.57;84827.94;5129102;28;20612;-56
2023/05/30 11:06:42;;;;;;;7.75;5.05;;;;;;;-144.30;82.19;84756.38;5128842;28;20229;-55
2023/05/30 11:09:11;;;;;;;6.88;4.55;;;;;;;-144.30;81.38;84772.28;5126728;28;20194;-56
2023/05/30 11:11:40;;;;;;;4.60;4.20;;;;;;;-144.30;80.77;84674.88;5129209;28;20194;-55
2023/05/30 11:14:09;;;;;;;4.05;3.65;;;;;;;-144.30;78.50;84748.44;5128920;28;20194;-55
2023/05/30 11:16:50;;;;;;;3.95;3.65;;;;;;;-144.30;78.39;84780.22;5129126;28;20186;-55